Time;durP1;ratioP1;P1;durP2;ratioP2;P2;SDS_P1;SDS_P2;PMS_P1;PMS_P2;Temp;Humidity;BMP_temperature;BMP_pressure;BME280_temperature;BME280_humidity;BME280_pressure;Samples;Min_cycle;Max_cycle;Signal;HPM_P1;HPM_P2
2023/04/11 00:00:25;;;;;;;15.82;5.65;;;;;;;8.97;100.00;162909.06;5070392;28;20041;-59
2023/04/11 00:02:51;;;;;;;12.43;6.43;;;;;;;8.75;100.00;162852.38;5071209;28;20051;-60
2023/04/11 00:05:16;;;;;;;12.82;3.20;;;;;;;8.42;100.00;162766.09;5069873;28;20037;-59
2023/04/11 00:07:41;;;;;;;6.07;3.97;;;;;;;8.26;100.00;162725.63;5071718;28;20403;-60
2023/04/11 00:10:07;;;;;;;6.88;3.50;;;;;;;8.04;100.00;162666.34;5069406;28;20032;-59
2023/04/11 00:12:32;;;;;;;10.00;3.92;;;;;;;7.84;100.00;162615.16;5071223;28;20036;-60
2023/04/11 00:14:58;;;;;;;16.67;3.33;;;;;;;7.63;100.00;162561.22;5069921;28;20495;-60
2023/04/11 00:17:23;;;;;;;14.25;4.25;;;;;;;7.56;100.00;162542.38;5071210;28;20024;-60
2023/04/11 00:19:52;;;;;;;14.25;3.90;;;;;;;7.48;100.00;162520.84;5069658;28;20032;-60
2023/04/11 00:22:17;;;;;;;5.13;3.72;;;;;;;7.42;100.00;162504.66;5071067;28;20098;-59
2023/04/11 00:24:44;;;;;;;13.15;4.18;;;;;;;7.38;100.00;162495.22;5069899;28;20036;-60
2023/04/11 00:27:10;;;;;;;15.02;5.28;;;;;;;7.33;100.00;162480.44;5070511;28;20572;-61
2023/04/11 00:29:36;;;;;;;16.60;6.07;;;;;;;7.23;100.00;162454.81;5069110;28;20044;-59
2023/04/11 00:32:02;;;;;;;16.45;7.82;;;;;;;7.18;100.00;162442.72;5070907;28;20031;-59
2023/04/11 00:34:27;;;;;;;12.23;5.45;;;;;;;7.18;100.00;162442.72;5069301;28;20107;-60
2023/04/11 00:36:53;;;;;;;9.05;5.00;;;;;;;7.22;100.00;162453.47;5071014;28;20086;-60
2023/04/11 00:39:21;;;;;;;14.80;5.22;;;;;;;7.26;100.00;162464.22;5069709;28;20033;-60
2023/04/11 00:41:47;;;;;;;5.85;3.70;;;;;;;7.28;100.00;162468.31;5070533;28;20029;-60
2023/04/11 00:44:12;;;;;;;7.90;4.80;;;;;;;7.28;100.00;162468.31;5069334;28;20025;-60
2023/04/11 00:46:41;;;;;;;9.88;4.85;;;;;;;7.11;100.00;162423.88;5070924;28;20127;-61
2023/04/11 00:49:07;;;;;;;7.00;4.60;;;;;;;7.10;100.00;162421.19;5068911;28;20514;-61
2023/04/11 00:51:32;;;;;;;9.65;4.30;;;;;;;7.18;100.00;162442.72;5071015;28;20111;-61
2023/04/11 00:53:57;;;;;;;14.40;5.18;;;;;;;7.18;100.00;162442.72;5069071;28;20028;-60
2023/04/11 00:56:23;;;;;;;14.27;5.68;;;;;;;7.17;100.00;162438.66;5070383;28;20027;-61
2023/04/11 00:58:48;;;;;;;17.15;7.03;;;;;;;7.18;100.00;162442.72;5071022;28;20028;-60
2023/04/11 01:01:15;;;;;;;20.73;7.25;;;;;;;7.24;100.00;162457.50;5068903;28;20036;-60
2023/04/11 01:03:41;;;;;;;11.35;5.78;;;;;;;7.29;100.00;162472.34;5069272;28;20391;-60
2023/04/11 01:06:11;;;;;;;20.02;6.93;;;;;;;7.19;100.00;162444.06;5069099;28;20036;-60
2023/04/11 01:08:39;;;;;;;17.95;7.15;;;;;;;7.18;100.00;162442.72;5070726;28;20024;-60
2023/04/11 01:11:06;;;;;;;18.60;7.85;;;;;;;7.52;100.00;162531.59;5068609;28;20051;-61
2023/04/11 01:13:33;;;;;;;17.60;6.13;;;;;;;7.38;100.00;162493.91;5070199;28;20028;-60
2023/04/11 01:15:59;;;;;;;27.52;10.15;;;;;;;7.52;100.00;162531.59;5067755;28;20510;-61
2023/04/11 01:18:25;;;;;;;26.17;10.88;;;;;;;7.51;100.00;162528.91;5070016;28;20589;-61
2023/04/11 01:20:51;;;;;;;33.47;9.68;;;;;;;7.48;100.00;162520.84;5068666;28;20059;-61
2023/04/11 01:23:22;;;;;;;21.80;9.27;;;;;;;7.34;100.00;162483.09;5070751;28;20032;-60
2023/04/11 01:25:48;;;;;;;50.75;12.15;;;;;;;7.35;100.00;162487.16;5068574;28;20392;-61
2023/04/11 01:28:14;;;;;;;22.05;10.38;;;;;;;7.63;100.00;162561.22;5070036;28;20024;-60
2023/04/11 01:30:39;;;;;;;38.97;12.82;;;;;;;7.70;100.00;162577.44;5068944;28;20056;-61
2023/04/11 01:33:04;;;;;;;27.20;8.75;;;;;;;7.72;100.00;162582.78;5069992;28;20039;-61
2023/04/11 01:35:30;;;;;;;34.45;10.40;;;;;;;7.73;100.00;162585.47;5068923;28;20041;-61
2023/04/11 01:37:55;;;;;;;35.10;10.10;;;;;;;7.76;100.00;162593.59;5070237;28;20025;-61
2023/04/11 01:40:22;;;;;;;27.30;9.70;;;;;;;7.76;100.00;162594.91;5068565;28;20443;-61
2023/04/11 01:42:50;;;;;;;37.85;9.65;;;;;;;7.76;100.00;162593.59;5074356;28;20028;-61
2023/04/11 01:45:16;;;;;;;29.17;9.48;;;;;;;7.76;100.00;162593.59;5073051;28;20036;-62
2023/04/11 01:47:42;;;;;;;26.50;10.50;;;;;;;7.78;100.00;162599.00;5074019;28;20393;-62
2023/04/11 01:50:08;;;;;;;48.90;11.70;;;;;;;7.80;100.00;162604.34;5072369;28;20055;-62
2023/04/11 01:52:33;;;;;;;26.15;9.13;;;;;;;7.83;100.00;162612.44;5073958;28;20537;-61
2023/04/11 01:54:58;;;;;;;31.08;9.55;;;;;;;7.91;100.00;162634.00;5072202;28;20367;-62
2023/04/11 01:57:24;;;;;;;20.42;8.43;;;;;;;8.00;100.00;162655.59;5074115;28;20028;-62
2023/04/11 01:59:49;;;;;;;31.75;11.82;;;;;;;8.03;100.00;162663.63;5072386;28;20408;-61
2023/04/11 02:02:15;;;;;;;35.22;10.65;;;;;;;8.07;100.00;162674.44;5073990;28;20138;-62
2023/04/11 02:04:40;;;;;;;34.00;11.05;;;;;;;8.08;100.00;162677.09;5072132;28;20036;-61
2023/04/11 02:07:06;;;;;;;24.50;9.48;;;;;;;8.09;100.00;162679.81;5073751;28;20020;-61
2023/04/11 02:09:31;;;;;;;48.92;12.32;;;;;;;8.12;100.00;162686.59;5072133;28;20430;-61
2023/04/11 02:11:56;;;;;;;30.90;10.40;;;;;;;8.15;100.00;162696.00;5073221;28;20020;-60
2023/04/11 02:14:23;;;;;;;35.65;12.15;;;;;;;8.17;100.00;162700.03;5072351;28;20032;-61
2023/04/11 02:16:53;;;;;;;31.50;9.55;;;;;;;8.17;100.00;162701.38;5073615;28;20031;-61
2023/04/11 02:19:24;;;;;;;28.33;9.00;;;;;;;7.92;100.00;162636.72;5072040;28;20404;-61
2023/04/11 02:21:50;;;;;;;34.00;12.85;;;;;;;8.06;100.00;162671.75;5073258;28;20474;-60
2023/04/11 02:24:15;;;;;;;29.45;8.07;;;;;;;7.97;100.00;162647.47;5071883;28;20051;-61
2023/04/11 02:26:41;;;;;;;54.63;16.35;;;;;;;8.00;100.00;162655.59;5073443;28;20033;-61
2023/04/11 02:29:07;;;;;;;35.00;10.10;;;;;;;7.94;100.00;162642.06;5071729;28;20027;-60
2023/04/11 02:31:32;;;;;;;26.35;8.07;;;;;;;7.86;100.00;162620.50;5073594;28;20024;-61
2023/04/11 02:33:57;;;;;;;30.63;9.73;;;;;;;7.81;100.00;162607.06;5071418;28;20024;-60
2023/04/11 02:36:23;;;;;;;54.72;10.55;;;;;;;7.79;100.00;162601.66;5072034;28;20043;-59
2023/04/11 02:38:48;;;;;;;29.58;6.45;;;;;;;7.82;100.00;162609.75;5073188;28;20510;-59
2023/04/11 02:41:13;;;;;;;21.15;6.57;;;;;;;7.83;100.00;162612.44;5071071;28;20399;-60
2023/04/11 02:43:39;;;;;;;29.50;9.70;;;;;;;7.80;100.00;162604.34;5073270;28;20078;-60
2023/04/11 02:46:05;;;;;;;47.60;11.20;;;;;;;7.79;100.00;162601.66;5071632;28;20037;-60
2023/04/11 02:48:30;;;;;;;24.25;8.88;;;;;;;7.76;100.00;162593.59;5072679;28;20027;-60
2023/04/11 02:50:56;;;;;;;29.30;9.77;;;;;;;7.80;100.00;162604.34;5071318;28;20040;-60
2023/04/11 02:53:21;;;;;;;33.05;10.07;;;;;;;7.64;100.00;162562.59;5072448;28;20109;-60
2023/04/11 02:55:46;;;;;;;27.40;8.45;;;;;;;7.62;100.00;162558.56;5071300;28;20032;-60
2023/04/11 02:58:16;;;;;;;29.15;9.57;;;;;;;7.80;100.00;162603.03;5073188;28;20469;-60
2023/04/11 03:00:42;;;;;;;31.00;8.25;;;;;;;7.85;100.00;162616.47;5071543;28;20041;-60
2023/04/11 03:03:07;;;;;;;44.63;8.77;;;;;;;7.81;100.00;162605.72;5072084;28;20070;-60
2023/04/11 03:05:33;;;;;;;30.50;7.20;;;;;;;7.75;100.00;162590.88;5071181;28;20047;-59
2023/04/11 03:07:58;;;;;;;30.25;8.80;;;;;;;7.71;100.00;162580.09;5072707;28;20162;-59
2023/04/11 03:10:23;;;;;;;34.47;13.45;;;;;;;7.67;100.00;162570.66;5070758;28;20048;-59
2023/04/11 03:12:49;;;;;;;31.58;8.65;;;;;;;7.62;100.00;162557.19;5072739;28;20035;-59
2023/04/11 03:15:16;;;;;;;46.58;8.65;;;;;;;7.52;100.00;162531.59;5070920;28;20033;-59
2023/04/11 03:17:41;;;;;;;27.85;7.32;;;;;;;7.39;100.00;162496.59;5072162;28;20375;-59
2023/04/11 03:20:08;;;;;;;25.33;7.30;;;;;;;6.91;100.00;162372.66;5070064;28;20033;-60
2023/04/11 03:22:33;;;;;;;22.52;6.13;;;;;;;6.50;100.00;162264.97;5072265;28;20165;-61
2023/04/11 03:24:58;;;;;;;13.40;5.43;;;;;;;6.16;100.00;162176.13;5070135;28;20166;-61
2023/04/11 03:27:24;;;;;;;16.80;5.15;;;;;;;5.86;100.00;162098.00;5072363;28;20020;-61
2023/04/11 03:29:49;;;;;;;6.50;3.47;;;;;;;5.61;100.00;162032.09;5070770;28;20041;-60
2023/04/11 03:32:15;;;;;;;8.75;3.30;;;;;;;5.47;100.00;161995.78;5071906;28;20027;-61
2023/04/11 03:34:40;;;;;;;14.30;4.78;;;;;;;5.44;100.00;161987.69;5070542;28;20036;-61
2023/04/11 03:37:05;;;;;;;14.15;5.20;;;;;;;5.34;100.00;161963.47;5071947;28;20028;-62
2023/04/11 03:39:31;;;;;;;16.48;5.07;;;;;;;5.23;100.00;161935.22;5070100;28;20024;-62
2023/04/11 03:41:56;;;;;;;11.80;4.10;;;;;;;5.21;100.00;161928.50;5071713;28;20043;-60
2023/04/11 03:44:22;;;;;;;11.70;5.22;;;;;;;5.34;100.00;161963.47;5070565;28;20040;-60
2023/04/11 03:46:47;;;;;;;11.45;3.72;;;;;;;5.45;100.00;161990.41;5071603;28;20031;-58
2023/04/11 03:49:12;;;;;;;15.20;4.20;;;;;;;5.43;100.00;161985.00;5070152;28;20039;-59
2023/04/11 03:51:38;;;;;;;20.90;7.47;;;;;;;5.68;100.00;162052.28;5071899;28;20476;-59
2023/04/11 03:54:03;;;;;;;16.90;5.20;;;;;;;5.72;100.00;162063.03;5069838;28;20353;-59
2023/04/11 03:56:28;;;;;;;21.65;6.13;;;;;;;5.75;100.00;162068.44;5071868;28;20031;-60
2023/04/11 03:58:54;;;;;;;15.57;5.65;;;;;;;5.52;100.00;162009.22;5071385;28;20028;-59
2023/04/11 04:01:20;;;;;;;24.98;7.93;;;;;;;5.86;100.00;162098.00;5069719;28;20102;-59
2023/04/11 04:03:45;;;;;;;23.25;6.57;;;;;;;5.88;100.00;162103.41;5070544;28;20032;-59
2023/04/11 04:06:10;;;;;;;24.13;7.32;;;;;;;5.85;100.00;162096.69;5069679;28;20049;-59
2023/04/11 04:08:36;;;;;;;20.05;6.70;;;;;;;5.82;100.00;162087.25;5071159;28;20065;-60
2023/04/11 04:11:01;;;;;;;17.70;6.53;;;;;;;5.76;100.00;162072.44;5069212;28;20507;-61
2023/04/11 04:13:26;;;;;;;17.45;5.43;;;;;;;5.65;100.00;162044.19;5070236;28;20129;-60
2023/04/11 04:15:52;;;;;;;17.83;6.03;;;;;;;5.58;100.00;162025.38;5068780;28;20055;-62
2023/04/11 04:18:17;;;;;;;21.23;6.40;;;;;;;5.54;100.00;162014.63;5070929;28;20043;-62
2023/04/11 04:20:42;;;;;;;16.77;4.45;;;;;;;5.46;100.00;161993.09;5068715;28;20044;-62
2023/04/11 04:23:08;;;;;;;18.15;5.72;;;;;;;5.39;100.00;161976.97;5069980;28;20472;-61
2023/04/11 04:25:33;;;;;;;21.80;6.82;;;;;;;5.37;100.00;161971.56;5069761;28;20032;-61
2023/04/11 04:27:59;;;;;;;45.42;6.95;;;;;;;5.29;100.00;161950.03;5070935;28;20032;-61
2023/04/11 04:30:27;;;;;;;22.23;7.10;;;;;;;5.20;100.00;161927.19;5067251;28;20036;-61
2023/04/11 04:32:57;;;;;;;30.83;6.87;;;;;;;5.23;100.00;161933.91;5069839;28;20094;-61
2023/04/11 04:35:24;;;;;;;24.65;7.82;;;;;;;5.28;100.00;161947.34;5069578;28;20056;-61
2023/04/11 04:37:49;;;;;;;39.53;8.70;;;;;;;5.32;100.00;161958.13;5070453;28;20024;-61
2023/04/11 04:40:19;;;;;;;18.02;6.00;;;;;;;5.42;100.00;161982.31;5069302;28;20040;-61
2023/04/11 04:42:48;;;;;;;33.50;9.43;;;;;;;5.45;100.00;161990.41;5071084;28;20111;-61
2023/04/11 04:45:14;;;;;;;20.95;5.93;;;;;;;5.54;100.00;162014.63;5069007;28;20495;-60
2023/04/11 04:47:39;;;;;;;13.70;4.40;;;;;;;5.60;100.00;162030.75;5070818;28;20040;-61
2023/04/11 04:50:06;;;;;;;12.30;4.15;;;;;;;5.59;100.00;162028.06;5069064;28;20040;-61
2023/04/11 04:52:31;;;;;;;19.77;5.40;;;;;;;5.63;100.00;162038.81;5070929;28;20032;-61
2023/04/11 04:54:57;;;;;;;18.67;5.72;;;;;;;5.68;100.00;162052.28;5068923;28;20043;-61
2023/04/11 04:57:23;;;;;;;27.67;7.57;;;;;;;5.75;100.00;162068.44;5061950;28;20032;-61
2023/04/11 04:59:49;;;;;;;20.17;8.07;;;;;;;5.74;100.00;162065.72;5057869;28;20187;-61
2023/04/11 05:02:15;;;;;;;19.38;5.45;;;;;;;5.85;100.00;162095.31;5058377;28;21323;-61
2023/04/11 05:04:41;;;;;;;20.20;5.72;;;;;;;5.93;100.00;162116.84;5057319;28;20131;-61
2023/04/11 05:07:06;;;;;;;16.45;4.68;;;;;;;6.08;100.00;162154.56;5064004;28;20164;-61
2023/04/11 05:09:32;;;;;;;10.45;4.65;;;;;;;6.15;100.00;162173.41;5062174;28;20041;-61
2023/04/11 05:11:57;;;;;;;15.95;5.80;;;;;;;6.18;100.00;162181.50;5059816;28;20032;-61
2023/04/11 05:14:22;;;;;;;27.58;8.43;;;;;;;6.23;100.00;162194.94;5056405;28;20037;-61
2023/04/11 05:16:48;;;;;;;18.48;6.68;;;;;;;6.24;100.00;162197.66;5056690;28;20029;-61
2023/04/11 05:19:13;;;;;;;13.50;6.30;;;;;;;6.22;100.00;162192.25;5056317;28;20537;-61
2023/04/11 05:21:38;;;;;;;25.38;5.38;;;;;;;6.30;100.00;162213.78;5057927;28;20455;-61
2023/04/11 05:24:04;;;;;;;29.05;8.98;;;;;;;6.30;100.00;162213.78;5057411;28;20025;-61
2023/04/11 05:26:30;;;;;;;9.10;4.10;;;;;;;6.37;100.00;162230.00;5063609;28;20024;-61
2023/04/11 05:28:56;;;;;;;14.68;6.32;;;;;;;6.39;100.00;162235.34;5063625;28;20063;-61
2023/04/11 05:31:21;;;;;;;17.42;6.07;;;;;;;6.37;100.00;162231.31;5066656;28;20495;-61
2023/04/11 05:33:46;;;;;;;12.45;3.78;;;;;;;6.38;100.00;162232.63;5070650;28;20035;-62
2023/04/11 05:36:15;;;;;;;14.73;4.97;;;;;;;6.35;100.00;162227.28;5068754;28;20044;-61
2023/04/11 05:38:41;;;;;;;12.90;5.47;;;;;;;6.35;100.00;162227.28;5070258;28;20031;-61
2023/04/11 05:41:07;;;;;;;19.25;4.95;;;;;;;6.43;100.00;162247.47;5067625;28;20056;-61
2023/04/11 05:43:32;;;;;;;15.63;3.92;;;;;;;6.49;100.00;162263.59;5070174;28;20037;-61
2023/04/11 05:45:58;;;;;;;12.90;4.10;;;;;;;6.48;100.00;162259.59;5068225;28;20041;-61
2023/04/11 05:48:23;;;;;;;13.35;4.88;;;;;;;6.54;100.00;162275.72;5070388;28;20028;-61
2023/04/11 05:50:49;;;;;;;13.55;6.07;;;;;;;6.61;100.00;162294.56;5068767;28;20040;-61
2023/04/11 05:53:15;;;;;;;9.90;4.43;;;;;;;6.65;100.00;162304.00;5069329;28;20073;-60
2023/04/11 05:55:40;;;;;;;10.32;3.40;;;;;;;6.73;100.00;162324.22;5068949;28;20037;-61
2023/04/11 05:58:06;;;;;;;11.90;4.03;;;;;;;6.78;100.00;162337.66;5070162;28;20030;-61
2023/04/11 06:00:31;;;;;;;17.60;4.63;;;;;;;6.75;100.00;162329.56;5068066;28;20040;-61
2023/04/11 06:02:58;;;;;;;13.45;3.33;;;;;;;6.80;100.00;162343.06;5069792;28;20028;-61
2023/04/11 06:05:25;;;;;;;15.80;4.93;;;;;;;6.90;100.00;162368.66;5068301;28;20047;-61
2023/04/11 06:07:51;;;;;;;14.98;5.60;;;;;;;6.94;100.00;162379.41;5069563;28;20024;-61
2023/04/11 06:10:16;;;;;;;14.88;4.43;;;;;;;7.06;100.00;162410.38;5068712;28;20047;-61
2023/04/11 06:12:41;;;;;;;20.50;4.60;;;;;;;7.10;100.00;162421.19;5070139;28;20036;-61
2023/04/11 06:15:08;;;;;;;9.80;3.33;;;;;;;7.13;100.00;162430.59;5067933;28;20033;-61
2023/04/11 06:17:33;;;;;;;10.45;4.60;;;;;;;7.03;100.00;162402.31;5070132;28;20051;-60
2023/04/11 06:20:00;;;;;;;5.13;2.28;;;;;;;6.98;100.00;162391.53;5064571;28;20037;-60
2023/04/11 06:22:25;;;;;;;7.65;4.82;;;;;;;7.20;100.00;162446.75;5069147;28;20040;-61
2023/04/11 06:24:50;;;;;;;11.77;4.97;;;;;;;7.22;100.00;162452.16;5068240;28;20036;-60
2023/04/11 06:27:16;;;;;;;9.90;2.85;;;;;;;6.83;100.00;162351.13;5071362;28;20031;-61
2023/04/11 06:29:44;;;;;;;8.02;3.05;;;;;;;7.13;100.00;162429.22;5071471;28;20047;-61
2023/04/11 06:32:10;;;;;;;10.05;3.17;;;;;;;7.15;100.00;162435.94;5073206;28;20036;-61
2023/04/11 06:34:37;;;;;;;9.52;3.63;;;;;;;7.19;100.00;162444.06;5071999;28;20407;-60
2023/04/11 06:37:03;;;;;;;10.48;3.83;;;;;;;7.11;100.00;162423.88;5072813;28;20031;-61
2023/04/11 06:39:28;;;;;;;10.73;3.75;;;;;;;7.12;100.00;162426.53;5072195;28;20032;-61
2023/04/11 06:41:53;;;;;;;14.85;4.57;;;;;;;7.13;100.00;162429.22;5071919;28;20028;-61
2023/04/11 06:44:19;;;;;;;8.93;3.42;;;;;;;7.21;100.00;162450.78;5071573;28;20041;-61
2023/04/11 06:46:44;;;;;;;10.38;4.20;;;;;;;7.33;100.00;162480.44;5073272;28;20043;-61
2023/04/11 06:49:10;;;;;;;16.02;4.10;;;;;;;7.29;100.00;162472.34;5071552;28;20020;-61
2023/04/11 06:51:36;;;;;;;5.88;3.28;;;;;;;7.38;100.00;162493.91;5072863;28;20487;-61
2023/04/11 06:54:02;;;;;;;13.38;3.72;;;;;;;7.39;100.00;162496.59;5071634;28;20071;-61
2023/04/11 06:56:28;;;;;;;11.18;3.47;;;;;;;7.44;100.00;162510.06;5073178;28;20024;-61
2023/04/11 06:58:53;;;;;;;19.85;6.55;;;;;;;7.53;100.00;162532.94;5072535;28;20028;-61
2023/04/11 07:01:24;;;;;;;6.05;3.17;;;;;;;7.70;100.00;162577.44;5071369;28;20044;-61
2023/04/11 07:03:51;;;;;;;34.55;3.55;;;;;;;7.80;100.00;162604.34;5072960;28;20035;-61
2023/04/11 07:06:18;;;;;;;17.55;6.55;;;;;;;7.71;100.00;162580.09;5071000;28;20051;-61
2023/04/11 07:08:44;;;;;;;18.35;8.38;;;;;;;7.95;100.00;162643.44;5072864;28;20438;-61
2023/04/11 07:11:10;;;;;;;10.20;5.18;;;;;;;8.06;100.00;162671.75;5071059;28;20036;-60
2023/04/11 07:13:35;;;;;;;12.68;4.00;;;;;;;8.02;100.00;162660.94;5072492;28;20024;-61
2023/04/11 07:16:00;;;;;;;15.38;7.82;;;;;;;7.86;100.00;162619.19;5071141;28;20055;-60
2023/04/11 07:18:26;;;;;;;11.48;5.55;;;;;;;8.12;100.00;162686.59;5072833;28;20025;-61
2023/04/11 07:20:51;;;;;;;12.98;5.00;;;;;;;8.15;100.00;162696.00;5070342;28;20079;-61
2023/04/11 07:23:17;;;;;;;7.65;2.35;;;;;;;8.77;100.00;162857.78;5072616;28;20048;-60
2023/04/11 07:25:43;;;;;;;11.45;3.97;;;;;;;9.43;100.00;163030.38;5071110;28;20040;-61
2023/04/11 07:28:09;;;;;;;9.70;4.35;;;;;;;10.00;100.00;163178.81;5071901;28;20628;-60
2023/04/11 07:30:35;;;;;;;5.53;3.00;;;;;;;10.14;100.00;163215.22;5071067;28;20033;-60
2023/04/11 07:33:00;;;;;;;4.63;2.20;;;;;;;9.14;100.00;162953.53;5072009;28;20031;-60
2023/04/11 07:35:27;;;;;;;12.13;2.85;;;;;;;8.92;100.00;162895.53;5070764;28;20644;-60
2023/04/11 07:37:52;;;;;;;8.30;2.22;;;;;;;9.06;100.00;162933.28;5071540;28;20502;-61
2023/04/11 07:40:18;;;;;;;8.45;3.13;;;;;;;9.63;100.00;163083.00;5070049;28;20041;-60
2023/04/11 07:42:45;;;;;;;12.18;3.53;;;;;;;10.09;100.00;163203.06;5071901;28;20027;-61
2023/04/11 07:45:10;;;;;;;6.80;2.20;;;;;;;9.72;100.00;163104.59;5070215;28;20037;-60
2023/04/11 07:47:36;;;;;;;12.63;4.18;;;;;;;9.58;100.00;163068.16;5072038;28;20021;-61
2023/04/11 07:50:02;;;;;;;12.43;4.57;;;;;;;9.58;100.00;163068.16;5070212;28;20071;-60
2023/04/11 07:52:27;;;;;;;14.77;3.05;;;;;;;10.02;100.00;163182.84;5071705;28;20435;-60
2023/04/11 07:54:52;;;;;;;16.90;5.30;;;;;;;9.95;100.00;163165.28;5070362;28;20032;-60
2023/04/11 07:57:18;;;;;;;8.23;3.00;;;;;;;9.80;100.00;163127.50;5071827;28;20484;-60
2023/04/11 07:59:43;;;;;;;12.07;3.72;;;;;;;9.63;100.00;163083.00;5070024;28;20036;-60
2023/04/11 08:02:08;;;;;;;9.50;2.40;;;;;;;10.38;100.00;163277.34;5071599;28;20573;-60
2023/04/11 08:04:36;;;;;;;6.57;3.58;;;;;;;10.65;100.00;163348.91;5070308;28;20395;-60
2023/04/11 08:07:01;;;;;;;12.70;4.50;;;;;;;10.65;100.00;163347.56;5071166;28;20480;-61
2023/04/11 08:09:27;;;;;;;7.35;2.35;;;;;;;10.95;100.00;163428.53;5070247;28;20159;-60
2023/04/11 08:11:53;;;;;;;10.30;3.60;;;;;;;11.35;100.00;163532.53;5070116;28;20028;-60
2023/04/11 08:14:18;;;;;;;6.32;3.10;;;;;;;11.05;100.00;163454.22;5069728;28;20029;-60
2023/04/11 08:16:44;;;;;;;7.28;3.22;;;;;;;11.25;100.00;163505.50;5071436;28;20032;-60
2023/04/11 08:19:10;;;;;;;10.30;2.83;;;;;;;11.26;100.00;163508.22;5069958;28;20089;-61
2023/04/11 08:21:36;;;;;;;20.15;2.70;;;;;;;11.46;100.00;163559.50;5070746;28;20430;-60
2023/04/11 08:24:01;;;;;;;8.05;3.17;;;;;;;11.19;100.00;163489.31;5071186;28;20043;-60
2023/04/11 08:26:27;;;;;;;6.32;2.67;;;;;;;11.44;100.00;163555.47;5069971;28;20418;-60
2023/04/11 08:28:52;;;;;;;5.80;2.55;;;;;;;11.39;100.00;163543.31;5070600;28;20032;-61
2023/04/11 08:31:18;;;;;;;10.25;3.95;;;;;;;12.35;100.00;163793.28;5069689;28;20499;-60
2023/04/11 08:33:43;;;;;;;5.55;2.28;;;;;;;11.66;100.00;163613.53;5071333;28;20035;-61
2023/04/11 08:36:09;;;;;;;7.28;2.03;;;;;;;11.79;100.00;163645.97;5068966;28;20063;-61
2023/04/11 08:38:35;;;;;;;11.02;3.63;;;;;;;12.02;100.00;163708.19;5071109;28;20029;-61
2023/04/11 08:41:01;;;;;;;10.55;3.85;;;;;;;11.42;100.00;163551.44;5069268;28;20029;-60
2023/04/11 08:43:26;;;;;;;9.32;2.22;;;;;;;12.03;100.00;163710.84;5070707;28;20047;-61
2023/04/11 08:45:52;;;;;;;3.75;1.95;;;;;;;11.40;100.00;163546.03;5069618;28;20040;-61
2023/04/11 08:48:20;;;;;;;3.55;2.05;;;;;;;11.52;100.00;163575.72;5070960;28;20464;-60
2023/04/11 08:50:46;;;;;;;5.95;2.70;;;;;;;11.95;100.00;163689.16;5068563;28;20038;-60
2023/04/11 08:53:11;;;;;;;8.52;3.55;;;;;;;12.09;100.00;163724.38;5069462;28;20115;-61
2023/04/11 08:55:45;;;;;;;9.93;3.13;;;;;;;11.65;100.00;163609.50;5069695;28;20049;-61
2023/04/11 08:58:10;;;;;;;5.93;3.10;;;;;;;11.65;100.00;163610.88;5070351;28;20038;-60
2023/04/11 09:00:35;;;;;;;12.50;3.25;;;;;;;11.55;100.00;163583.84;5069322;28;20041;-60
2023/04/11 09:03:03;;;;;;;6.82;3.40;;;;;;;12.24;100.00;163763.53;5070750;28;20050;-61
2023/04/11 09:05:31;;;;;;;5.72;3.17;;;;;;;12.73;100.00;163891.94;5068923;28;20186;-61
2023/04/11 09:07:58;;;;;;;6.32;1.70;;;;;;;12.03;100.00;163710.84;5070511;28;20021;-61
2023/04/11 09:10:24;;;;;;;4.25;2.17;;;;;;;12.28;100.00;163775.72;5069186;28;20041;-60
2023/04/11 09:12:50;;;;;;;6.97;1.85;;;;;;;12.22;100.00;163759.50;5070106;28;20418;-60
2023/04/11 09:15:26;;;;;;;7.07;3.72;;;;;;;12.63;100.00;163867.59;5069231;28;20094;-60
2023/04/11 09:17:52;;;;;;;5.85;2.47;;;;;;;12.42;100.00;163810.84;5070648;28;20029;-60
2023/04/11 09:20:19;;;;;;;8.88;4.15;;;;;;;12.50;100.00;163833.84;5068789;28;20119;-60
2023/04/11 09:22:48;;;;;;;6.35;3.00;;;;;;;12.65;100.00;163873.00;5070475;28;20437;-61
2023/04/11 09:25:13;;;;;;;5.90;2.55;;;;;;;12.18;100.00;163750.03;5068923;28;20113;-61
2023/04/11 09:27:38;;;;;;;4.53;2.40;;;;;;;11.59;100.00;163594.63;5070344;28;20024;-61
2023/04/11 09:30:04;;;;;;;8.50;2.88;;;;;;;11.26;100.00;163508.22;5068807;28;20051;-61
2023/04/11 09:32:34;;;;;;;7.60;3.22;;;;;;;10.77;100.00;163379.94;5070473;28;20028;-61
2023/04/11 09:35:10;;;;;;;5.30;3.15;;;;;;;11.15;100.00;163478.47;5068762;28;20119;-60
2023/04/11 09:37:51;;;;;;;4.10;2.05;;;;;;;11.09;100.00;163465.00;5069154;28;20391;-61
2023/04/11 09:40:19;;;;;;;11.20;4.90;;;;;;;10.62;100.00;163340.78;5068967;28;20032;-60
2023/04/11 09:42:45;;;;;;;28.88;4.18;;;;;;;10.93;100.00;163421.78;5069920;28;20024;-60
2023/04/11 09:45:20;;;;;;;8.75;3.55;;;;;;;10.41;100.00;163285.47;5068823;28;20041;-60
2023/04/11 09:47:47;;;;;;;9.05;3.72;;;;;;;10.08;100.00;163200.41;5070349;28;20032;-60
2023/04/11 09:50:13;;;;;;;7.07;2.10;;;;;;;10.42;100.00;163289.50;5068253;28;20037;-61
2023/04/11 09:52:41;;;;;;;5.60;1.55;;;;;;;10.84;100.00;163397.47;5070225;28;20411;-61
2023/04/11 09:55:09;;;;;;;9.15;4.57;;;;;;;10.77;100.00;163379.94;5068777;28;20247;-60
2023/04/11 09:57:37;;;;;;;7.30;2.95;;;;;;;11.24;100.00;163502.81;5070206;28;20036;-60
2023/04/11 10:00:13;;;;;;;17.42;4.07;;;;;;;12.37;100.00;163800.03;5068618;28;20094;-60
2023/04/11 10:02:38;;;;;;;4.85;2.42;;;;;;;12.82;100.00;163916.28;5072249;28;20024;-60
2023/04/11 10:05:04;;;;;;;5.18;2.95;;;;;;;12.36;100.00;163797.34;5072028;28;20033;-61
2023/04/11 10:07:32;;;;;;;6.50;2.28;;;;;;;11.67;100.00;163616.22;5071816;28;20044;-60
2023/04/11 10:09:57;;;;;;;8.23;2.42;;;;;;;11.04;100.00;163451.50;5062727;28;20084;-60
2023/04/11 10:12:30;;;;;;;8.05;3.10;;;;;;;11.85;100.00;163663.50;5053023;28;20090;-60
2023/04/11 10:14:56;;;;;;;4.53;2.22;;;;;;;11.82;100.00;163654.06;5051778;28;20060;-60
2023/04/11 10:17:21;;;;;;;6.22;3.00;;;;;;;11.16;100.00;163481.19;5052619;28;20017;-60
2023/04/11 10:19:48;;;;;;;11.57;2.20;;;;;;;10.94;100.00;163425.88;5057603;28;20041;-61
2023/04/11 10:22:45;;;;;;;3.97;2.40;;;;;;;10.62;100.00;163342.16;5072279;28;20394;-61
2023/04/11 10:25:16;;;;;;;5.18;2.40;;;;;;;11.01;100.00;163443.38;5070344;28;20415;-60
2023/04/11 10:27:49;;;;;;;11.45;3.10;;;;;;;10.70;100.00;163361.06;5072835;28;20426;-60
2023/04/11 10:30:15;;;;;;;6.82;2.17;;;;;;;10.45;100.00;163297.63;5070556;28;20044;-60
2023/04/11 10:32:40;;;;;;;11.65;3.17;;;;;;;10.27;100.00;163248.97;5072002;28;20033;-61
2023/04/11 10:35:15;;;;;;;11.57;4.32;;;;;;;10.21;100.00;163232.78;5069670;28;20548;-61
2023/04/11 10:37:40;;;;;;;3.38;2.50;;;;;;;10.20;100.00;163231.41;5052966;28;20055;-60
2023/04/11 10:40:10;;;;;;;3.95;1.75;;;;;;;10.89;100.00;163411.00;5057658;28;20041;-60
2023/04/11 10:42:39;;;;;;;8.60;3.45;;;;;;;11.71;100.00;163627.06;5071774;28;20059;-60
2023/04/11 10:45:29;;;;;;;7.82;2.63;;;;;;;12.34;100.00;163790.59;5070910;28;20044;-60
2023/04/11 10:47:57;;;;;;;8.50;3.47;;;;;;;11.78;100.00;163643.28;5072221;28;20016;-61
2023/04/11 10:50:25;;;;;;;9.02;2.30;;;;;;;11.47;100.00;163563.56;5071103;28;20114;-60
2023/04/11 10:52:55;;;;;;;6.43;2.22;;;;;;;11.21;100.00;163494.69;5072529;28;20020;-60
2023/04/11 10:55:22;;;;;;;6.50;2.85;;;;;;;11.59;100.00;163594.63;5071002;28;20045;-60
2023/04/11 10:58:07;;;;;;;8.00;3.85;;;;;;;11.74;100.00;163633.81;5072771;28;20055;-60
2023/04/11 11:00:50;;;;;;;8.70;2.70;;;;;;;11.07;100.00;163459.59;5070841;28;20040;-60
2023/04/11 11:03:18;;;;;;;4.97;1.92;;;;;;;11.51;100.00;163573.00;5072360;28;20535;-60
2023/04/11 11:05:44;;;;;;;4.57;2.08;;;;;;;12.12;100.00;163733.84;5071080;28;20036;-60
2023/04/11 11:08:09;;;;;;;4.95;2.13;;;;;;;12.70;100.00;163886.50;5071964;28;20600;-60
2023/04/11 11:10:42;;;;;;;5.97;2.05;;;;;;;13.02;100.00;163970.31;5070627;28;20055;-60
2023/04/11 11:13:08;;;;;;;3.78;1.60;;;;;;;13.66;100.00;164135.34;5071980;28;20021;-60